Share

Cowen, WV (26206)

Webster Springs (KWVWEBST2) Elev 1526 ft | 38.48 °N, 80.42 °W | Change Station
Active Advisory: Special Statement

Current weather conditions updated 9 minutes ago

Clear
Clear
75.8 °F
Feels Like 75 °F
N
1.0
Wind Variable Wind from ENE
Gusts 7.0 mph
Sunrise 6:39 AM
Sunset 8:03 PM
Moon Waning Gibbous

Tomorrow is forecast to be nearly the same temperature as today. A few showers developing late tomorrow night.

Pressure 30.24 in
Visibility 10.0 miles
Clouds Clear
Heat Index 75 °F
Dew Point 10 °F
Humidity 8%
Rainfall 0.00 in
Snow Depth Not available.
UV 5 out of 16
Pollen 10.00 out of 12
Air Quality Not available.
Flu Activity Sporadic
METAR KLWB 202035Z AUTO 12003KT 10SM CLR 19/M07 A3024 RMK AO2 T01891074

More Conditions Fewer Conditions

Pressure 30.24 in
Visibility 10.0 miles
Clouds Clear
Heat Index 75 °F
Dew Point 10 °F
Humidity 8%
Rainfall 0.00 in
Snow Depth Not available.
UV 5 out of 16
Pollen 10.00 out of 12
Air Quality Not available.
Flu Activity Sporadic
METAR KLWB 202035Z AUTO 12003KT 10SM CLR 19/M07 A3024 RMK AO2 T01891074

More Conditions Fewer Conditions

10-Day Weather Forecast

Almanac

Astronomy

Apr. 20, 2014 Rise Set
Actual Time 6:39 AM EDT 8:03 PM EDT
Civil Twilight 6:11 AM EDT 8:31 PM EDT
Nautical Twilight 5:38 AM EDT 9:04 PM EDT
Astronomical Twilight 5:03 AM EDT 9:39 PM EDT
Moon 12:40 AM EDT 10:59 AM EDT
Length of Visible Light 14h 19m
Length of Day
13h 24m
Tomorrow will be 2m 18s longer.
Waning Gibbous, 66% of the Moon is Illuminated
Today
Waning Gibbous
Apr 22
Last Quarter
Apr 29
New
May 6
First Quarter
May 14
Full

Today's Extremes

State Highs State Lows

Community

  • Morning Sun
    Morning Sun
  • after rain
    after rain
  • Columbine
    Columbine
  • Easter Sunrise
    Easter Sunrise
  • Easter Eve - The Promise - Lake Palestine, TX
    Easter Eve - The Promise - Lake Palestine, TX

WunderPhotos

Upload Photos

1,703,351 photos uploaded!

WunderBlogs® & News

Nearby

Snow Depth

Station Depth Elevation
No new snow has been reported.

Coastal Water Temperatures

Place Temperature
No Stations Reporting

Earthquake Activity

City Distance Mag. Time & Date
No recent earthquake activity has been reported nearby.
Minimum magnitude displayed is 2.5.

Nearby Weather Stations

Station Location Temp. Heat Index Dew Point Humidity Wind Precip. Elev Updated Type
Webster Springs, Webster Springs, WV 75.8 °F 75 °F 10 °F 8% ENE  at  1.0 mph 0.00 in / hr 1526 ft 4:50 PM EDT Normal
HADS PICKENS WV, Pickens, WV 71 °F - - - North  at  - 0.00 in / hr 2879 ft 3:45 PM EDT MADIS
RAWS FLATWOODS WV, Sutton, WV 76 °F 76 °F 22 °F 13% West  at  6 mph 0.00 in / hr 1267 ft 4:17 PM EDT MADIS
Frame Circle, Gassaway, WV 78.1 °F 77 °F 31 °F 18% NW  at  4.0 mph 0.00 in / hr 890 ft 4:59 PM EDT Rapid Fire

Show More Stations Show Fewer Stations

What do you think?

We're not finished. Please let us know what you like, what you don't like, and what you are still missing.